LKPRTNCM

Guest
Details From LKPR - Ruzyne
To TNCM - St Maarten - Princess Juliana Intl
Flight Number -
Tags Generated
Created
Modified
Stats Distance 4,098 nm / 7,590 km
Max Altitude 0 ft / 0 m
Waypoints 6
Social Downloads 9
Likes 0
Share VATSIM

Download

Looking for another format? Having issues loading an existing format? Contact us
Advertisement - Login to hide

Notes

Generated

Route

LKPR GALEC MONUR GOBUR MNOLO TNCM

ID Type Via Altitude Latitude Longitude Leg Dist Tot Dist Heading (true) Name
O LKPR APT - 0 ft / 0 m 50.08771˚ 14.26668˚ - 0 nm - -
GALEC FIX - 0 ft / 0 m 50.12234˚ 8.70203˚ 214 nm 214 nm 273° / 268° -
MONUR FIX - 0 ft / 0 m 49.86000˚ 2.78833˚ 228 nm 443 nm 268° / 264° -
GOBUR FIX - 0 ft / 0 m 49.29167˚ -3.07528˚ 230 nm 673 nm 264° / 259° -
MNOLO FIX - 0 ft / 0 m 18.34556˚ -62.80211˚ 3398 nm 4072 nm 259° / 222° -
O TNCM APT - 0 ft / 0 m 18.03937˚ -63.11961˚ 25 nm 4098 nm 225° / 225° -

Altitude Profile

Advertisement - Login to hide

Weather


0- 5 10 15 20 25 30 35+ Temperature / ° C

Clouds and Precipitation
Forecast for 2018-05-21 12:00 UTC. Updated 28 minutes ago

Ground ~20,000 ft ~40,000 ft Winds

LKPR

Details ICAO LKPR (PRG)
Name Praha - Ruzyne
Region Czech Republic
Timezone Europe/Prague (UTC+2.0)
Stats Elevation 1,246 ft / 380 m (AMSL)
Location 50.101144° 14.262963°
Runways 3
Magnetic Variation 3.917° E

METAR

LKPR 211130Z 09013KT 9999 FEW049 19/08 Q1018 NOSIG

Decode

TAF

TAF LKPR 210500Z 2106/2212 07009KT CAVOK TEMPO 2107/2120 09013G23KT TEMPO 2200/2206 VRB02KT

Decode

Departure Runways

ID Width Length Bearing (true) Bearing (mag) Surface Threshold Offset Overrun Length
04 197 ft / 60 m 6,932 ft / 2,113 m 36.80° 32.88° Asphalt 0 ft / 0 m 0 ft / 0 m
06 148 ft / 45 m 12,160 ft / 3,706 m 64.92° 61.00° Concrete 0 ft / 0 m 0 ft / 0 m
12 148 ft / 45 m 10,622 ft / 3,238 m 126.99° 123.07° Concrete 0 ft / 0 m 0 ft / 0 m
22 197 ft / 60 m 6,932 ft / 2,113 m 216.81° 212.89° Asphalt 0 ft / 0 m 591 ft / 180 m
24 148 ft / 45 m 12,160 ft / 3,706 m 244.96° 241.04° Concrete 0 ft / 0 m 0 ft / 0 m
30 148 ft / 45 m 10,622 ft / 3,238 m 307.01° 303.09° Concrete 0 ft / 0 m 0 ft / 0 m

TNCM

Details ICAO TNCM (SXM)
Name St Maarten - Princess Juliana Intl
Region Caribbean Netherlands, Aruba, Curaçao, Sint Maarten
Timezone Unknown (UTC+0.0)
Stats Elevation 12 ft / 4 m (AMSL)
Location 18.040889° -63.108974°
Runways 1
Magnetic Variation 14.337° W

METAR

TNCM 211100Z 08009KT 050V110 9999 FEW018 26/21 Q1017 A3003 NOSIG

Decode

TAF

TAF TNCM 210520Z 2106/2206 08010KT P6SM VCSH SCT018 FM211300 09015KT P6SM VCSH SCT020

Decode

Destination Runways

ID Width Length Bearing (true) Bearing (mag) Surface Threshold Offset Overrun Length
10 148 ft / 45 m 7,464 ft / 2,275 m 81.43° 95.77° Asphalt 0 ft / 0 m 151 ft / 46 m
28 148 ft / 45 m 7,464 ft / 2,275 m 261.44° 275.78° Asphalt 397 ft / 121 m 0 ft / 0 m

Popular Alternatives